AIRPORT ID: KTHM

DATE: 2024-07-20 ZULU TIME: 14.55 LOCAL TIME: 8.55


METAR KTHM 201455Z AUTO 00000KT 10SM 21/11 A3023

ALTIMETER: A3023 Q1024

DENSITY ALT: 3300 Ft

WIND DIRECT: 240

WIND SPEED: 0 Gust

WIND CONDITIONS:

VISIBILTY: 10SM 9999M

TEMPERATURE: 70 F 21 C

DEW POINT: 52 F 11 C

HUMID: 52%

LCL: Above 5,000 feet

RADIO CHECK: 0

ADVISARIES: 0

GREETINGS: 0

CONVERSATIONS: 0